CheckWX is a tool to help pilots better visualize weather data.  It is not intended as a substitute for an official pre-flight weather briefing.

05:32:39 UTC

ESSP METAR
Norrköping Airport
Norrköping, Sweden
Current

13 mins ago

ESSP 240520Z AUTO 26008KT 9999 NCD 02/01 Q1029
Observed
Feb-24 @ 05:20 UTC
Wind
  • 260° at 8 KTS
Visibility
10,000+ meters
Flight Rules
VFR
Cloud Levels
  • Clear skies
Temperature
C / 36°F
Dewpoint
C / 34°F
Humidity
93%
Altimeter
30.38" Hg
Pressure
1028.91 hPa
Previous

43 mins ago

ESSP 240450Z AUTO 26009KT 9999 NCD 02/01 Q1029
Observed
Feb-24 @ 04:50 UTC
Wind
  • 260° at 9 KTS
Visibility
10,000+ meters
Flight Rules
VFR
Cloud Levels
  • Clear skies
Temperature
C / 36°F
Dewpoint
C / 34°F
Humidity
93%
Altimeter
30.38" Hg
Pressure
1028.91 hPa
Previous

1 hour ago

ESSP 240420Z AUTO 26009KT 9999 NCD 02/01 Q1030
Observed
Feb-24 @ 04:20 UTC
Wind
  • 260° at 9 KTS
Visibility
10,000+ meters
Flight Rules
VFR
Cloud Levels
  • Clear skies
Temperature
C / 36°F
Dewpoint
C / 34°F
Humidity
93%
Altimeter
30.41" Hg
Pressure
1029.91 hPa